KCEF/CEF METAR and TAF weather

Enter ICAO airport designator
Station Type Date Time Source
KCEF METAR 2022/01/23 10:56 UTC NOAA

KCEF 231056Z AUTO 18003KT 10SM CLR M07/M13 A2992 RMK AO2 SLP142 T10731128


Station Type Date Time Source
KCEF Decoded METAR 2022/01/23 10:56 UTC NOAA

Chicopee Falls / Westover Air Force Base, MA, United States (KCEF) 42-12N 072-32W 75M
Jan 23, 2022 - 05:56 AM EST / 2022.01.23 1056 UTC
Wind: from the S (180 degrees) at 3 MPH (3 KT):0
Visibility: 10 mile(s):0
Sky conditions: clear
Temperature: 18.9 F (-7.3 C)
Dew Point: 9.0 F (-12.8 C)
Relative Humidity: 64%
Pressure (altimeter): 29.92 in. Hg (1013 hPa)
ob: KCEF 231056Z AUTO 18003KT 10SM CLR M07/M13 A2992 RMK AO2 SLP142 T10731128
cycle: 11

Station Type Date Time Source
KCEF TAF 2022/01/23 03:09 UTC NOAA

TAF TAF KCEF 230300Z 2303/2409 VRB06KT 9999 FEW040 BKN150 BKN200 QNH2980INS
BECMG 2318/2319 22009KT 9999 FEW025 OVC070 620705 QNH2973INS
BECMG 2404/2405 36007KT 9999 SCT060 QNH2979INS TXM01/2319Z TNM12/2305Z LAST NO
AMDS AFT 2304 NEXT 2312

Example: see airport list